createdAt,value
2023-04-02T00:00:37.149Z,15.98
2023-04-02T00:03:09.156Z,19.83
2023-04-02T00:05:52.320Z,24.63
2023-04-02T00:08:41.037Z,27.25
2023-04-02T00:11:09.245Z,14.23
2023-04-02T00:13:39.149Z,16.23
2023-04-02T00:16:11.449Z,14.95
2023-04-02T00:18:44.273Z,11.80
2023-04-02T00:21:23.048Z,17.85
2023-04-02T00:23:50.565Z,12.23
2023-04-02T00:26:30.850Z,23.00
2023-04-02T00:29:00.012Z,8.93
2023-04-02T00:31:27.352Z,11.00
2023-04-02T00:33:55.987Z,13.68
2023-04-02T00:36:26.749Z,25.98
2023-04-02T00:38:55.928Z,13.95
2023-04-02T00:41:36.165Z,15.63
2023-04-02T00:44:03.599Z,22.00
2023-04-02T00:46:34.768Z,20.20
2023-04-02T00:49:11.160Z,18.38
2023-04-02T00:51:53.415Z,14.73
2023-04-02T00:54:23.180Z,19.23
2023-04-02T00:56:54.023Z,15.32
2023-04-02T01:00:07.830Z,15.10
2023-04-02T01:02:38.426Z,13.07
2023-04-02T01:05:17.914Z,15.30
2023-04-02T01:08:00.852Z,16.27
2023-04-02T01:11:26.192Z,16.92
2023-04-02T01:14:11.746Z,21.35
2023-04-02T01:17:18.439Z,15.60
2023-04-02T01:20:23.906Z,16.90
2023-04-02T01:23:18.404Z,16.10
2023-04-02T01:25:57.547Z,12.05
2023-04-02T01:29:09.331Z,11.82
2023-04-02T01:31:37.448Z,15.55
2023-04-02T01:34:07.783Z,11.50
2023-04-02T01:36:56.500Z,21.88
2023-04-02T01:39:44.583Z,14.43
2023-04-02T01:42:23.447Z,14.60
2023-04-02T01:44:52.743Z,15.48
2023-04-02T01:47:25.838Z,13.45
2023-04-02T01:50:01.160Z,12.30
2023-04-02T01:52:41.226Z,16.10
2023-04-02T01:55:14.221Z,18.52
2023-04-02T01:57:51.448Z,17.35
2023-04-02T02:00:19.243Z,16.83
2023-04-02T02:02:51.606Z,18.50
2023-04-02T02:05:25.111Z,21.17
2023-04-02T02:07:54.615Z,16.98
2023-04-02T02:10:33.900Z,23.60
2023-04-02T02:13:01.095Z,20.45
2023-04-02T02:15:28.808Z,16.27
2023-04-02T02:18:02.647Z,10.07
2023-04-02T02:20:30.206Z,15.32
2023-04-02T02:22:58.860Z,13.95
2023-04-02T02:25:30.505Z,16.75
2023-04-02T02:28:06.506Z,12.82
2023-04-02T02:30:50.713Z,14.75
2023-04-02T02:33:34.129Z,11.02
2023-04-02T02:36:06.330Z,10.10
2023-04-02T02:38:42.717Z,23.38
2023-04-02T02:41:38.302Z,12.23
2023-04-02T02:44:23.672Z,21.63
2023-04-02T02:46:54.977Z,19.88
2023-04-02T02:49:28.437Z,17.08
2023-04-02T02:52:00.629Z,14.15
2023-04-02T02:54:29.053Z,12.23
2023-04-02T02:57:03.568Z,15.10
2023-04-02T02:59:31.623Z,20.50
2023-04-02T03:02:00.433Z,20.67
2023-04-02T03:04:30.750Z,12.82
2023-04-02T03:06:58.930Z,14.43
2023-04-02T03:09:53.218Z,12.13
2023-04-02T03:12:23.124Z,13.05
2023-04-02T03:14:57.786Z,16.55
2023-04-02T03:17:37.515Z,16.70
2023-04-02T03:20:31.279Z,11.68
2023-04-02T03:23:20.529Z,18.42
2023-04-02T03:25:59.668Z,15.10
2023-04-02T03:28:32.115Z,20.52
2023-04-02T03:31:26.615Z,23.60
2023-04-02T03:33:59.367Z,19.30
2023-04-02T03:36:35.426Z,19.75
2023-04-02T03:39:25.719Z,13.98
2023-04-02T03:42:03.406Z,20.83
2023-04-02T03:44:30.363Z,20.58
2023-04-02T03:47:22.251Z,21.33
2023-04-02T03:50:08.193Z,20.55
2023-04-02T03:52:37.510Z,19.90
2023-04-02T03:55:31.638Z,21.92
2023-04-02T03:58:21.112Z,15.82
2023-04-02T04:01:20.564Z,14.93
2023-04-02T04:03:52.813Z,14.13
2023-04-02T04:06:27.589Z,19.75
2023-04-02T04:09:28.229Z,14.48
2023-04-02T04:12:19.815Z,15.35
2023-04-02T04:14:53.779Z,18.40
2023-04-02T04:17:51.332Z,14.25
2023-04-02T04:20:24.195Z,13.45
2023-04-02T04:22:55.929Z,12.27
2023-04-02T04:25:30.355Z,18.20
2023-04-02T04:28:24.180Z,19.20
2023-04-02T04:31:09.241Z,23.65
2023-04-02T04:33:54.956Z,16.88
2023-04-02T04:36:29.908Z,17.92
2023-04-02T04:39:08.035Z,13.52
2023-04-02T04:41:39.240Z,16.23
2023-04-02T04:44:18.976Z,19.60
2023-04-02T04:46:53.770Z,15.80
2023-04-02T04:49:58.981Z,13.70
2023-04-02T04:52:39.010Z,15.63
2023-04-02T04:55:35.260Z,15.60
2023-04-02T04:58:12.179Z,14.65
2023-04-02T05:01:00.549Z,15.52
2023-04-02T05:03:45.715Z,15.68
2023-04-02T05:06:32.714Z,22.55
2023-04-02T05:09:25.341Z,17.05
2023-04-02T05:12:22.600Z,14.10
2023-04-02T05:14:58.350Z,17.83
2023-04-02T05:17:36.472Z,16.08
2023-04-02T05:20:21.849Z,17.58
2023-04-02T05:23:18.194Z,23.50
2023-04-02T05:26:15.007Z,17.42
2023-04-02T05:28:50.618Z,15.95
2023-04-02T05:31:26.249Z,16.45
2023-04-02T05:33:54.211Z,16.92
2023-04-02T05:36:24.911Z,11.23
2023-04-02T05:38:53.306Z,16.17
2023-04-02T05:41:32.625Z,18.23
2023-04-02T05:44:17.940Z,23.20
2023-04-02T05:47:06.044Z,18.80
2023-04-02T05:49:51.017Z,12.82
2023-04-02T05:52:26.240Z,17.73
2023-04-02T05:55:20.277Z,15.75
2023-04-02T05:58:13.314Z,17.45
2023-04-02T06:00:40.210Z,15.10
2023-04-02T06:03:24.150Z,18.23
2023-04-02T06:05:53.093Z,20.75
2023-04-02T06:08:43.361Z,18.95
2023-04-02T06:11:27.210Z,22.35
2023-04-02T06:13:54.430Z,10.65
2023-04-02T06:16:25.624Z,19.30
2023-04-02T06:18:52.798Z,14.07
2023-04-02T06:21:21.377Z,15.07
2023-04-02T06:24:02.691Z,13.82
2023-04-02T06:26:36.654Z,19.90
2023-04-02T06:29:20.352Z,17.02
2023-04-02T06:31:57.576Z,15.70
2023-04-02T06:34:26.230Z,17.63
2023-04-02T06:37:01.440Z,14.95
2023-04-02T06:39:28.440Z,20.05
2023-04-02T06:42:17.046Z,14.35
2023-04-02T06:44:44.417Z,13.55
2023-04-02T06:47:37.539Z,20.50
2023-04-02T06:50:04.459Z,16.23
2023-04-02T06:52:37.624Z,14.00
2023-04-02T06:55:40.216Z,12.95
2023-04-02T06:58:08.910Z,13.23
2023-04-02T07:00:46.544Z,16.55
2023-04-02T07:03:19.683Z,19.27
2023-04-02T07:05:47.495Z,21.42
2023-04-02T07:08:14.642Z,22.08
2023-04-02T07:10:42.260Z,19.58
2023-04-02T07:13:20.362Z,16.35
2023-04-02T07:15:53.225Z,21.10
2023-04-02T07:18:29.054Z,12.02
2023-04-02T07:20:56.952Z,9.68
2023-04-02T07:23:24.409Z,19.38
2023-04-02T07:25:54.178Z,16.33
2023-04-02T07:28:22.919Z,19.27
2023-04-02T07:30:51.303Z,19.83
2023-04-02T07:33:21.100Z,14.32
2023-04-02T07:35:49.140Z,13.57
2023-04-02T07:38:16.171Z,13.27
2023-04-02T07:40:43.380Z,11.63
2023-04-02T07:43:11.394Z,15.35
2023-04-02T07:45:38.791Z,17.63
2023-04-02T07:48:13.664Z,15.43
2023-04-02T07:50:40.826Z,13.50
2023-04-02T07:53:08.875Z,17.95
2023-04-02T07:55:36.450Z,15.45
2023-04-02T07:58:04.222Z,15.77
2023-04-02T08:00:31.504Z,11.60
2023-04-02T08:02:58.566Z,14.73
2023-04-02T08:05:26.437Z,18.15
2023-04-02T08:07:55.707Z,14.75
2023-04-02T08:10:23.597Z,17.10
2023-04-02T08:12:50.727Z,19.15
2023-04-02T08:15:18.467Z,14.73
2023-04-02T08:17:46.599Z,12.73
2023-04-02T08:20:18.892Z,13.20
2023-04-02T08:22:49.735Z,16.83
2023-04-02T08:25:17.243Z,12.82
2023-04-02T08:27:47.601Z,21.90
2023-04-02T08:30:17.163Z,14.52
2023-04-02T08:32:44.535Z,12.85
2023-04-02T08:35:14.946Z,19.35
2023-04-02T08:37:42.623Z,17.40
2023-04-02T08:40:23.260Z,22.63
2023-04-02T08:42:50.336Z,18.38
2023-04-02T08:45:47.133Z,17.15
2023-04-02T08:48:15.713Z,20.77
2023-04-02T08:50:44.651Z,20.27
2023-04-02T08:53:19.646Z,16.60
2023-04-02T08:56:09.812Z,16.83
2023-04-02T08:58:43.679Z,16.95
2023-04-02T09:01:16.649Z,13.85
2023-04-02T09:03:47.422Z,14.93
2023-04-02T09:06:18.926Z,14.52
2023-04-02T09:08:48.935Z,23.60
2023-04-02T09:11:41.761Z,15.00
2023-04-02T09:14:20.965Z,16.10
2023-04-02T09:16:58.668Z,22.13
2023-04-02T09:19:26.755Z,18.92
2023-04-02T09:22:14.902Z,17.40
2023-04-02T09:24:42.000Z,17.58
2023-04-02T09:27:33.142Z,12.80
2023-04-02T09:30:29.847Z,21.23
2023-04-02T09:33:00.959Z,18.60
2023-04-02T09:35:30.593Z,16.00
2023-04-02T09:38:24.640Z,19.48
2023-04-02T09:40:59.085Z,14.43
2023-04-02T09:43:30.084Z,18.58
2023-04-02T09:46:23.282Z,14.93
2023-04-02T09:48:54.358Z,14.48
2023-04-02T09:51:36.669Z,18.15
2023-04-02T09:54:03.736Z,22.20
2023-04-02T09:56:32.997Z,14.55
2023-04-02T09:59:15.624Z,17.13
2023-04-02T10:01:58.327Z,21.40
2023-04-02T10:04:48.081Z,13.60
2023-04-02T10:07:37.460Z,13.13
2023-04-02T10:10:35.258Z,16.17
2023-04-02T10:13:14.639Z,19.15
2023-04-02T10:16:35.860Z,17.52
2023-04-02T10:19:21.275Z,16.20
2023-04-02T10:21:49.634Z,19.95
2023-04-02T10:24:18.156Z,15.52
2023-04-02T10:27:05.412Z,14.57
2023-04-02T10:29:48.276Z,12.65
2023-04-02T10:32:18.820Z,13.60
2023-04-02T10:34:54.927Z,16.60
2023-04-02T10:37:40.607Z,22.33
2023-04-02T10:40:13.104Z,16.13
2023-04-02T10:43:18.734Z,12.80
2023-04-02T10:45:49.870Z,21.67
2023-04-02T10:49:07.998Z,16.13
2023-04-02T10:51:46.470Z,15.50
2023-04-02T10:54:35.462Z,18.27
2023-04-02T10:57:14.658Z,13.90
2023-04-02T10:59:49.466Z,13.10
2023-04-02T11:02:46.882Z,15.50
2023-04-02T11:05:23.909Z,18.15
2023-04-02T11:08:05.915Z,15.52
2023-04-02T11:10:37.886Z,18.95
2023-04-02T11:13:28.877Z,20.55
2023-04-02T11:15:56.267Z,21.00
2023-04-02T11:18:37.558Z,11.80
2023-04-02T11:21:07.517Z,11.60
2023-04-02T11:23:38.646Z,21.55
2023-04-02T11:26:43.156Z,17.33
2023-04-02T11:29:18.677Z,15.45
2023-04-02T11:31:46.711Z,12.85
2023-04-02T11:34:16.445Z,16.00
2023-04-02T11:36:55.138Z,20.13
2023-04-02T11:39:51.634Z,16.98
2023-04-02T11:42:18.780Z,15.23
2023-04-02T11:44:46.016Z,12.13
2023-04-02T11:47:27.465Z,15.38
2023-04-02T11:50:00.449Z,18.63
2023-04-02T11:52:51.120Z,19.63
2023-04-02T11:55:22.935Z,13.68
2023-04-02T11:58:05.268Z,18.58
2023-04-02T12:00:32.379Z,13.93
2023-04-02T12:03:25.782Z,13.88
2023-04-02T12:05:59.275Z,11.68
2023-04-02T12:08:58.043Z,14.52
2023-04-02T12:11:37.928Z,21.05
2023-04-02T12:14:42.904Z,15.43
2023-04-02T12:17:28.614Z,13.25
2023-04-02T12:20:20.776Z,10.95
2023-04-02T12:22:53.428Z,14.25
2023-04-02T12:25:30.196Z,17.20
2023-04-02T12:28:14.695Z,15.73
2023-04-02T12:30:42.369Z,17.38
2023-04-02T12:33:27.902Z,7.72
2023-04-02T12:36:00.979Z,11.98
2023-04-02T12:38:29.535Z,13.10
2023-04-02T12:40:59.228Z,14.32
2023-04-02T12:43:31.772Z,13.90
2023-04-02T12:46:05.698Z,14.77
2023-04-02T12:48:34.789Z,10.40
2023-04-02T12:51:03.260Z,12.75
2023-04-02T12:53:36.562Z,8.32
2023-04-02T12:56:05.068Z,10.23
2023-04-02T12:58:42.834Z,11.65
2023-04-02T13:01:19.128Z,8.57
2023-04-02T13:04:07.392Z,16.08
2023-04-02T13:06:36.497Z,15.93
2023-04-02T13:09:07.071Z,12.75
2023-04-02T13:11:39.098Z,12.45
2023-04-02T13:14:09.694Z,10.75
2023-04-02T13:16:39.958Z,10.15
2023-04-02T13:19:28.953Z,18.10
2023-04-02T13:21:58.136Z,9.93
2023-04-02T13:24:28.177Z,14.27
2023-04-02T13:26:57.960Z,5.85
2023-04-02T13:29:32.380Z,9.00
2023-04-02T13:32:02.184Z,7.93
2023-04-02T13:34:30.231Z,8.60
2023-04-02T13:36:57.794Z,7.72
2023-04-02T13:39:25.529Z,10.25
2023-04-02T13:41:57.521Z,7.90
2023-04-02T13:44:32.937Z,7.20
2023-04-02T13:47:00.716Z,6.90
2023-04-02T13:49:28.307Z,5.60
2023-04-02T13:52:00.456Z,6.72
2023-04-02T13:54:49.593Z,7.05
2023-04-02T13:57:16.744Z,6.55
2023-04-02T13:59:43.731Z,4.65
2023-04-02T14:02:19.177Z,5.25
2023-04-02T14:04:51.174Z,5.20
2023-04-02T14:07:26.411Z,6.15
2023-04-02T14:10:28.753Z,6.40
2023-04-02T14:13:31.302Z,6.78
2023-04-02T14:16:13.228Z,6.38
2023-04-02T14:18:46.255Z,7.80
2023-04-02T14:21:44.178Z,5.50
2023-04-02T14:24:23.720Z,11.20
2023-04-02T14:26:56.434Z,6.80
2023-04-02T14:29:40.528Z,4.75
2023-04-02T14:32:11.043Z,6.13
2023-04-02T14:35:03.945Z,6.45
2023-04-02T14:38:06.825Z,4.60
2023-04-02T14:40:49.745Z,11.30
2023-04-02T14:43:23.800Z,11.75
2023-04-02T14:45:57.989Z,8.85
2023-04-02T14:48:36.078Z,7.45
2023-04-02T14:51:14.276Z,7.32
2023-04-02T14:53:43.960Z,10.77
2023-04-02T14:56:13.144Z,11.27
2023-04-02T14:58:48.896Z,8.02
2023-04-02T15:01:35.644Z,9.88
2023-04-02T15:04:12.606Z,7.63
2023-04-02T15:06:45.795Z,4.75
2023-04-02T15:09:26.255Z,9.10
2023-04-02T15:12:19.509Z,8.23
2023-04-02T15:14:51.513Z,7.47
2023-04-02T15:17:20.593Z,7.30
2023-04-02T15:19:47.853Z,9.25
2023-04-02T15:22:40.675Z,8.95
2023-04-02T15:25:10.771Z,8.43
2023-04-02T15:27:47.258Z,10.93
2023-04-02T15:30:26.253Z,14.02
2023-04-02T15:32:57.185Z,6.95
2023-04-02T15:35:41.434Z,7.05
2023-04-02T15:38:11.269Z,8.23
2023-04-02T15:40:57.060Z,10.00
2023-04-02T15:44:03.607Z,9.00
2023-04-02T15:46:38.103Z,14.75
2023-04-02T15:49:08.198Z,11.38
2023-04-02T15:52:08.382Z,9.73
2023-04-02T15:54:55.983Z,10.95
2023-04-02T15:57:40.875Z,13.07
2023-04-02T16:00:30.903Z,7.88
2023-04-02T16:03:08.363Z,14.57
2023-04-02T16:05:41.824Z,9.88
2023-04-02T16:08:54.535Z,12.20
2023-04-02T16:11:22.203Z,15.27
2023-04-02T16:13:49.215Z,12.45
2023-04-02T16:16:34.394Z,8.88
2023-04-02T16:19:16.157Z,9.57
2023-04-02T16:21:56.582Z,11.00
2023-04-02T16:24:23.827Z,13.90
2023-04-02T16:27:15.153Z,17.33
2023-04-02T16:29:54.850Z,8.55
2023-04-02T16:32:40.912Z,12.98
2023-04-02T16:35:42.319Z,11.02
2023-04-02T16:38:22.390Z,15.75
2023-04-02T16:41:14.145Z,11.90
2023-04-02T16:43:47.773Z,10.93
2023-04-02T16:46:59.286Z,13.68
2023-04-02T16:49:32.689Z,11.18
2023-04-02T16:52:08.019Z,13.65
2023-04-02T16:55:13.140Z,8.15
2023-04-02T16:57:44.833Z,11.43
2023-04-02T17:00:24.022Z,12.70
2023-04-02T17:02:57.079Z,14.90
2023-04-02T17:05:46.841Z,13.43
2023-04-02T17:08:24.129Z,11.45
2023-04-02T17:11:07.758Z,13.45
2023-04-02T17:13:41.777Z,13.13
2023-04-02T17:16:32.624Z,10.35
2023-04-02T17:19:01.426Z,10.43
2023-04-02T17:21:30.852Z,10.23
2023-04-02T17:24:06.484Z,13.43
2023-04-02T17:26:37.543Z,15.27
2023-04-02T17:29:09.818Z,12.20
2023-04-02T17:31:38.611Z,14.10
2023-04-02T17:34:18.985Z,9.57
2023-04-02T17:37:07.341Z,10.73
2023-04-02T17:40:04.748Z,12.57
2023-04-02T17:43:17.089Z,13.85
2023-04-02T17:45:53.478Z,14.70
2023-04-02T17:48:51.688Z,12.63
2023-04-02T17:51:25.863Z,12.02
2023-04-02T17:54:21.657Z,10.68
2023-04-02T17:57:04.813Z,14.82
2023-04-02T17:59:58.362Z,13.90
2023-04-02T18:02:46.711Z,8.82
2023-04-02T18:05:51.402Z,11.63
2023-04-02T18:08:49.455Z,8.75
2023-04-02T18:11:38.032Z,9.07
2023-04-02T18:14:42.648Z,7.85
2023-04-02T18:17:47.622Z,10.07
2023-04-02T18:20:29.302Z,13.68
2023-04-02T18:23:08.405Z,9.93
2023-04-02T18:25:38.683Z,11.13
2023-04-02T18:28:35.187Z,11.75
2023-04-02T18:31:15.179Z,13.07
2023-04-02T18:34:09.589Z,7.57
2023-04-02T18:36:49.548Z,8.07
2023-04-02T18:39:55.456Z,10.02
2023-04-02T18:42:46.760Z,12.85
2023-04-02T18:45:13.647Z,8.48
2023-04-02T18:47:58.917Z,9.13
2023-04-02T18:50:39.355Z,11.23
2023-04-02T18:53:23.186Z,11.65
2023-04-02T18:56:02.373Z,8.07
2023-04-02T18:58:53.820Z,13.75
2023-04-02T19:01:30.697Z,9.88
2023-04-02T19:04:09.961Z,10.38
2023-04-02T19:06:46.331Z,6.15
2023-04-02T19:09:25.143Z,9.13
2023-04-02T19:11:53.141Z,9.35
2023-04-02T19:14:21.727Z,8.98
2023-04-02T19:16:54.610Z,8.95
2023-04-02T19:19:25.341Z,10.88
2023-04-02T19:22:29.954Z,7.95
2023-04-02T19:25:17.036Z,10.57
2023-04-02T19:27:54.132Z,8.05
2023-04-02T19:30:52.517Z,7.18
2023-04-02T19:33:28.382Z,10.10
2023-04-02T19:36:29.756Z,16.77
2023-04-02T19:39:22.399Z,9.85
2023-04-02T19:41:58.141Z,6.38
2023-04-02T19:44:25.112Z,8.32
2023-04-02T19:46:52.405Z,15.40
2023-04-02T19:49:30.766Z,9.13
2023-04-02T19:51:58.007Z,8.90
2023-04-02T19:54:24.979Z,11.35
2023-04-02T19:56:52.269Z,7.63
2023-04-02T19:59:19.229Z,6.18
2023-04-02T20:01:47.311Z,12.10
2023-04-02T20:04:14.992Z,11.90
2023-04-02T20:06:42.532Z,6.88
2023-04-02T20:09:09.580Z,11.63
2023-04-02T20:11:38.187Z,8.82
2023-04-02T20:14:05.642Z,10.20
2023-04-02T20:16:34.041Z,12.77
2023-04-02T20:19:01.182Z,11.48
2023-04-02T20:21:28.810Z,14.05
2023-04-02T20:23:56.221Z,8.73
2023-04-02T20:26:23.572Z,8.20
2023-04-02T20:28:50.792Z,7.65
2023-04-02T20:31:19.026Z,10.57
2023-04-02T20:33:47.097Z,4.95
2023-04-02T20:36:16.375Z,9.43
2023-04-02T20:38:43.868Z,9.80
2023-04-02T20:41:11.192Z,9.50
2023-04-02T20:43:40.724Z,6.10
2023-04-02T20:46:10.129Z,9.05
2023-04-02T20:48:38.485Z,4.82
2023-04-02T20:51:07.551Z,11.95
2023-04-02T20:53:36.591Z,4.93
2023-04-02T20:56:09.003Z,5.38
2023-04-02T20:58:37.632Z,7.28
2023-04-02T21:01:13.096Z,11.48
2023-04-02T21:03:40.204Z,7.70
2023-04-02T21:06:13.622Z,10.88
2023-04-02T21:08:41.010Z,7.18
2023-04-02T21:11:09.606Z,9.68
2023-04-02T21:13:37.052Z,4.70
2023-04-02T21:16:17.596Z,7.45
2023-04-02T21:18:45.312Z,14.68
2023-04-02T21:21:13.900Z,7.85
2023-04-02T21:23:42.259Z,7.95
2023-04-02T21:26:13.496Z,12.98
2023-04-02T21:28:40.801Z,10.98
2023-04-02T21:31:19.629Z,9.00
2023-04-02T21:33:52.515Z,10.45
2023-04-02T21:36:22.409Z,9.18
2023-04-02T21:38:54.646Z,8.98
2023-04-02T21:41:29.950Z,8.10
2023-04-02T21:43:59.735Z,9.32
2023-04-02T21:46:29.164Z,9.15
2023-04-02T21:48:58.878Z,10.77
2023-04-02T21:51:31.779Z,8.07
2023-04-02T21:54:00.166Z,9.55
2023-04-02T21:56:29.661Z,10.40
2023-04-02T21:58:57.205Z,11.30
2023-04-02T22:01:28.185Z,11.27
2023-04-02T22:03:57.192Z,10.23
2023-04-02T22:06:26.565Z,8.32
2023-04-02T22:08:56.538Z,10.57
2023-04-02T22:11:26.978Z,15.30
2023-04-02T22:13:54.397Z,12.73
2023-04-02T22:16:24.432Z,7.72
2023-04-02T22:18:53.098Z,4.32
2023-04-02T22:21:20.934Z,7.85
2023-04-02T22:23:49.052Z,8.02
2023-04-02T22:26:17.740Z,5.70
2023-04-02T22:28:45.109Z,10.32
2023-04-02T22:31:14.452Z,7.50
2023-04-02T22:33:42.385Z,9.90
2023-04-02T22:36:09.769Z,7.28
2023-04-02T22:38:37.676Z,10.82
2023-04-02T22:41:12.017Z,7.43
2023-04-02T22:43:41.496Z,8.57
2023-04-02T22:46:10.243Z,12.23
2023-04-02T22:48:39.700Z,10.23
2023-04-02T22:51:08.402Z,13.63
2023-04-02T22:53:36.881Z,5.20
2023-04-02T22:56:12.214Z,4.40
2023-04-02T22:58:39.551Z,6.38
2023-04-02T23:01:09.607Z,7.80
2023-04-02T23:03:36.695Z,7.35
2023-04-02T23:06:11.255Z,8.70
2023-04-02T23:08:39.804Z,8.40
2023-04-02T23:11:14.801Z,5.68
2023-04-02T23:13:42.477Z,10.05
2023-04-02T23:16:12.791Z,9.07
2023-04-02T23:18:41.839Z,10.20
2023-04-02T23:21:10.227Z,9.10
2023-04-02T23:23:37.414Z,4.85
2023-04-02T23:26:13.010Z,14.02
2023-04-02T23:28:41.237Z,8.70
2023-04-02T23:31:12.157Z,5.75
2023-04-02T23:33:39.381Z,7.50
2023-04-02T23:36:21.985Z,8.63
2023-04-02T23:38:51.223Z,8.73
2023-04-02T23:41:18.455Z,9.25
2023-04-02T23:43:45.484Z,9.65
2023-04-02T23:46:12.622Z,5.05
2023-04-02T23:48:39.883Z,6.63
2023-04-02T23:51:07.380Z,8.55
2023-04-02T23:53:35.335Z,7.82
2023-04-02T23:56:02.262Z,6.13
2023-04-02T23:58:29.594Z,6.18
